Time;durP1;ratioP1;P1;durP2;ratioP2;P2;SDS_P1;SDS_P2;PMS_P1;PMS_P2;Temp;Humidity;BMP_temperature;BMP_pressure;BME280_temperature;BME280_humidity;BME280_pressure;Samples;Min_cycle;Max_cycle;Signal;HPM_P1;HPM_P2
2022/07/04 00:00:29;;;;;;;1.75;1.08;;;;;;;;;;5050043;28;20100;-59
2022/07/04 00:03:00;;;;;;;9.45;1.63;;;;;;;;;;5052809;28;20074;-59
2022/07/04 00:05:34;;;;;;;;;;;;;;;;;;5052940;28;20025;-59
2022/07/04 00:08:07;;;;;;;4.75;1.67;;;;;;;;;;5050985;28;19970;-59
2022/07/04 00:10:48;;;;;;;1.98;1.17;;;;;;;;;;5052068;28;20044;-59
2022/07/04 00:13:28;;;;;;;2.40;1.50;;;;;;;;;;5053125;28;20025;-58
2022/07/04 00:16:01;;;;;;;2.38;1.52;;;;;;;;;;5038053;28;20549;-58
2022/07/04 00:18:39;;;;;;;2.90;1.30;;;;;;;;;;5032757;28;20041;-58
2022/07/04 00:21:26;;;;;;;2.75;1.67;;;;;;;;;;5030350;28;20028;-58
2022/07/04 00:24:05;;;;;;;2.08;1.35;;;;;;;;;;5032567;28;20211;-59
2022/07/04 00:26:41;;;;;;;4.13;1.85;;;;;;;;;;5031444;28;20025;-59
2022/07/04 00:29:19;;;;;;;3.55;1.73;;;;;;;;;;5032891;28;20048;-58
2022/07/04 00:31:51;;;;;;;4.55;1.35;;;;;;;;;;5032372;28;20021;-59
2022/07/04 00:34:20;;;;;;;4.97;2.03;;;;;;;;;;5031621;28;20037;-58
2022/07/04 00:37:03;;;;;;;;;;;;;;;;;;;;;
2022/07/04 00:39:30;;;;;;;2.72;1.70;;;;;;;;;;5032841;28;20029;-59
2022/07/04 00:41:56;;;;;;;4.15;1.52;;;;;;;;;;5031648;28;20038;-58
2022/07/04 00:44:26;;;;;;;2.78;1.83;;;;;;;;;;5030827;28;20445;-58
2022/07/04 00:46:55;;;;;;;2.35;1.35;;;;;;;;;;5032625;28;20025;-58
2022/07/04 00:49:33;;;;;;;2.05;1.33;;;;;;;;;;5033009;28;20038;-59
2022/07/04 00:52:24;;;;;;;5.00;1.40;;;;;;;;;;5031951;28;20029;-59
2022/07/04 00:54:57;;;;;;;1.73;1.15;;;;;;;;;;5032895;28;20025;-59
2022/07/04 00:57:31;;;;;;;3.60;1.85;;;;;;;;;;5033365;28;20498;-59
2022/07/04 01:00:07;;;;;;;2.85;1.38;;;;;;;;;;5035192;28;20025;-59
2022/07/04 01:02:35;;;;;;;2.28;1.15;;;;;;;;;;5036206;28;20034;-59
2022/07/04 01:05:08;;;;;;;1.70;1.13;;;;;;;;;;5037013;28;20023;-59
2022/07/04 01:07:53;;;;;;;5.65;1.30;;;;;;;;;;5036940;28;20032;-59
2022/07/04 01:10:20;;;;;;;2.70;1.33;;;;;;;;;;5035321;28;20080;-59
2022/07/04 01:13:06;;;;;;;4.07;1.60;;;;;;;;;;5036403;28;20429;-59
2022/07/04 01:15:45;;;;;;;2.40;1.58;;;;;;;;;;5047562;28;20033;-59
2022/07/04 01:18:26;;;;;;;2.00;1.42;;;;;;;;;;5054795;28;20024;-59
2022/07/04 01:21:15;;;;;;;;;;;;;;;;;;;;;
2022/07/04 01:23:48;;;;;;;2.05;1.05;;;;;;;;;;5056116;28;20023;-59
2022/07/04 01:26:30;;;;;;;3.08;2.40;;;;;;;;;;5055054;28;20036;-59
2022/07/04 01:29:40;;;;;;;2.50;1.55;;;;;;;;;;5056298;28;20043;-59
2022/07/04 01:32:12;;;;;;;2.08;1.40;;;;;;;;;;5055621;28;20021;-59
2022/07/04 01:37:46;;;;;;;2.45;1.40;;;;;;;;;;5056746;28;20041;-59
2022/07/04 01:40:15;;;;;;;3.08;1.70;;;;;;;;;;5055109;28;20565;-59
2022/07/04 01:45:42;;;;;;;2.08;1.23;;;;;;;;;;5054955;28;20128;-59
2022/07/04 01:48:13;;;;;;;4.73;1.70;;;;;;;;;;5055972;28;20029;-59
2022/07/04 01:53:58;;;;;;;2.85;1.23;;;;;;;;;;5050795;28;20037;-59
2022/07/04 01:56:37;;;;;;;3.42;1.35;;;;;;;;;;5055267;28;20029;-59
2022/07/04 01:59:17;;;;;;;1.85;1.17;;;;;;;;;;5055540;28;20017;-59
2022/07/04 02:01:53;;;;;;;3.28;1.73;;;;;;;;;;5055547;28;20111;-59
2022/07/04 02:04:32;;;;;;;2.58;1.55;;;;;;;;;;5056117;28;20025;-59
2022/07/04 02:07:02;;;;;;;2.38;1.50;;;;;;;;;;5054133;28;20190;-59
2022/07/04 02:09:43;;;;;;;2.00;1.40;;;;;;;;;;5055645;28;20580;-59
2022/07/04 02:14:58;;;;;;;2.63;1.52;;;;;;;;;;5049323;28;20036;-59
2022/07/04 02:17:30;;;;;;;3.08;1.83;;;;;;;;;;5036225;28;20029;-59
2022/07/04 02:20:02;;;;;;;2.85;1.50;;;;;;;;;;5034786;28;20032;-59
2022/07/04 02:22:46;;;;;;;1.90;1.30;;;;;;;;;;5035772;28;20017;-59
2022/07/04 02:25:18;;;;;;;2.63;1.27;;;;;;;;;;5035920;28;20422;-59
2022/07/04 02:30:48;;;;;;;4.03;1.48;;;;;;;;;;5034952;28;20044;-59
2022/07/04 02:33:23;;;;;;;2.80;1.70;;;;;;;;;;5035420;28;20093;-59
2022/07/04 02:35:49;;;;;;;2.50;1.75;;;;;;;;;;5035183;28;20587;-59
2022/07/04 02:38:18;;;;;;;2.20;1.50;;;;;;;;;;5034950;28;20036;-58
2022/07/04 02:41:02;;;;;;;2.57;1.50;;;;;;;;;;5034751;28;20030;-58
2022/07/04 02:43:44;;;;;;;2.78;1.73;;;;;;;;;;5035256;28;20108;-58
2022/07/04 02:46:29;;;;;;;6.07;2.20;;;;;;;;;;5035769;28;20029;-58
2022/07/04 02:48:55;;;;;;;3.58;1.60;;;;;;;;;;5033886;28;20213;-58
2022/07/04 02:51:24;;;;;;;2.90;1.65;;;;;;;;;;5033930;28;20026;-58
2022/07/04 02:53:53;;;;;;;2.35;1.52;;;;;;;;;;5035724;28;20033;-58
2022/07/04 02:56:25;;;;;;;5.35;1.73;;;;;;;;;;5035653;28;20021;-58
2022/07/04 02:58:59;;;;;;;3.15;1.50;;;;;;;;;;5035095;28;20089;-58
2022/07/04 03:01:40;;;;;;;2.92;1.58;;;;;;;;;;5034502;28;20025;-58
2022/07/04 03:04:28;;;;;;;1.80;1.50;;;;;;;;;;5033480;28;20026;-61
2022/07/04 03:06:59;;;;;;;3.03;1.60;;;;;;;;;;5033064;28;20029;-58
2022/07/04 03:09:28;;;;;;;2.30;1.38;;;;;;;;;;5034168;28;20021;-58
2022/07/04 03:14:53;;;;;;;7.78;2.15;;;;;;;;;;5025214;28;20025;-58
2022/07/04 03:17:47;;;;;;;3.80;2.03;;;;;;;;;;5052622;28;20031;-58
2022/07/04 03:20:20;;;;;;;2.03;1.60;;;;;;;;;;5054007;28;20090;-58
2022/07/04 03:22:54;;;;;;;2.60;1.40;;;;;;;;;;5054395;28;20067;-58
2022/07/04 03:25:29;;;;;;;2.65;1.40;;;;;;;;;;5053228;28;20056;-58
2022/07/04 03:28:08;;;;;;;3.00;1.60;;;;;;;;;;5052823;28;20035;-58
2022/07/04 03:31:07;;;;;;;;;;;;;;;;;;;;;
2022/07/04 03:33:42;;;;;;;3.47;1.80;;;;;;;;;;5052176;28;20036;-58
2022/07/04 03:36:26;;;;;;;3.35;2.00;;;;;;;;;;5051032;28;20375;-58
2022/07/04 03:39:04;;;;;;;4.82;2.03;;;;;;;;;;5052148;28;20021;-58
2022/07/04 03:41:41;;;;;;;4.30;1.90;;;;;;;;;;5051537;28;20025;-58
2022/07/04 03:44:20;;;;;;;;;;;;;;;;;;;;;
2022/07/04 03:46:47;;;;;;;3.35;1.95;;;;;;;;;;5029086;28;20044;-58
2022/07/04 03:52:15;;;;;;;2.90;2.00;;;;;;;;;;5031264;28;20116;-58
2022/07/04 03:54:54;;;;;;;;;;;;;;;;;;;;;
2022/07/04 03:57:32;;;;;;;2.40;1.27;;;;;;;;;;5029890;28;20040;-58
2022/07/04 04:00:09;;;;;;;7.70;2.13;;;;;;;;;;5030230;28;20116;-58
2022/07/04 04:05:40;;;;;;;4.22;1.95;;;;;;;;;;5028711;28;20525;-58
2022/07/04 04:08:12;;;;;;;7.10;1.88;;;;;;;;;;5031790;28;20018;-58
2022/07/04 04:10:47;;;;;;;3.45;1.75;;;;;;;;;;5031148;28;20030;-58
2022/07/04 04:13:29;;;;;;;2.03;1.48;;;;;;;;;;5031119;28;20056;-58
2022/07/04 04:15:55;;;;;;;5.53;1.77;;;;;;;;;;5029115;28;20022;-58
2022/07/04 04:18:34;;;;;;;3.17;1.92;;;;;;;;;;5031556;28;20502;-58
2022/07/04 04:21:06;;;;;;;4.13;1.95;;;;;;;;;;5028759;28;20129;-58
2022/07/04 04:23:37;;;;;;;3.33;1.70;;;;;;;;;;5029305;28;20021;-58
2022/07/04 04:26:11;;;;;;;2.15;1.40;;;;;;;;;;5031710;28;20029;-58
2022/07/04 04:28:46;;;;;;;4.15;2.22;;;;;;;;;;5031638;28;20022;-58
2022/07/04 04:31:24;;;;;;;2.20;1.73;;;;;;;;;;5028004;28;20056;-58
2022/07/04 04:33:59;;;;;;;2.65;1.88;;;;;;;;;;5032943;28;20109;-58
2022/07/04 04:40:17;;;;;;;;;;;;;;;;;;;;;
2022/07/04 04:43:02;;;;;;;4.28;1.80;;;;;;;;;;5035854;28;20324;-58
2022/07/04 04:45:40;;;;;;;2.45;1.48;;;;;;;;;;5033884;28;20116;-58
2022/07/04 04:48:12;;;;;;;2.25;1.67;;;;;;;;;;5033358;28;20044;-58
2022/07/04 04:50:53;;;;;;;2.85;1.67;;;;;;;;;;5034404;28;20026;-58
2022/07/04 04:53:28;;;;;;;5.82;1.48;;;;;;;;;;5034522;28;20033;-58
2022/07/04 04:56:20;;;;;;;2.08;1.42;;;;;;;;;;5033888;28;20041;-58
2022/07/04 04:59:12;;;;;;;2.60;1.50;;;;;;;;;;5034227;28;20033;-58
2022/07/04 05:01:41;;;;;;;2.78;1.73;;;;;;;;;;5032954;28;20037;-58
2022/07/04 05:04:29;;;;;;;2.85;1.52;;;;;;;;;;5035003;28;20021;-58
2022/07/04 05:07:11;;;;;;;3.05;1.63;;;;;;;;;;5034245;28;20107;-60
2022/07/04 05:09:55;;;;;;;2.13;1.27;;;;;;;;;;5030654;28;20076;-60
2022/07/04 05:12:45;;;;;;;3.60;1.70;;;;;;;;;;5032924;28;20041;-60
2022/07/04 05:15:24;;;;;;;2.40;1.45;;;;;;;;;;5034981;28;20494;-57
2022/07/04 05:17:53;;;;;;;1.92;1.27;;;;;;;;;;5033478;28;20348;-57
2022/07/04 05:20:22;;;;;;;2.40;1.55;;;;;;;;;;5034184;28;20035;-60
2022/07/04 05:22:51;;;;;;;3.20;1.58;;;;;;;;;;5034784;28;20103;-60
2022/07/04 05:25:30;;;;;;;3.17;1.60;;;;;;;;;;5034711;28;20045;-58
2022/07/04 05:28:07;;;;;;;2.10;1.50;;;;;;;;;;5033049;28;20540;-58
2022/07/04 05:30:48;;;;;;;2.22;1.35;;;;;;;;;;5030571;28;20145;-58
2022/07/04 05:33:26;;;;;;;6.13;1.63;;;;;;;;;;5034190;28;20038;-58
2022/07/04 05:39:05;;;;;;;3.13;1.80;;;;;;;;;;5026300;28;20083;-58
2022/07/04 05:41:45;;;;;;;2.38;1.67;;;;;;;;;;5032429;28;20043;-58
2022/07/04 05:44:11;;;;;;;4.13;1.63;;;;;;;;;;5032061;28;20435;-58
2022/07/04 05:46:43;;;;;;;3.35;1.77;;;;;;;;;;5033260;28;20375;-58
2022/07/04 05:49:09;;;;;;;4.97;1.50;;;;;;;;;;5032458;28;20483;-58
2022/07/04 05:52:05;;;;;;;3.20;1.48;;;;;;;;;;5033323;28;20033;-58
2022/07/04 05:54:41;;;;;;;3.53;2.00;;;;;;;;;;5034008;28;20402;-58
2022/07/04 05:57:39;;;;;;;1.77;1.30;;;;;;;;;;5031407;28;20387;-58
2022/07/04 06:00:24;;;;;;;3.15;1.40;;;;;;;;;;5024133;28;20025;-58
2022/07/04 06:02:53;;;;;;;2.20;1.50;;;;;;;;;;5032196;28;20479;-58
2022/07/04 06:08:50;;;;;;;3.92;1.75;;;;;;;;;;5030768;28;20033;-58
2022/07/04 06:11:57;;;;;;;2.65;1.55;;;;;;;;;;5031455;28;20021;-58
2022/07/04 06:14:31;;;;;;;5.53;2.35;;;;;;;;;;5014454;28;20041;-58
2022/07/04 06:17:03;;;;;;;2.83;1.90;;;;;;;;;;5052253;28;20112;-58
2022/07/04 06:19:37;;;;;;;2.92;2.00;;;;;;;;;;5033189;28;20060;-58
2022/07/04 06:22:17;;;;;;;5.68;1.80;;;;;;;;;;5031728;28;20454;-58
2022/07/04 06:25:02;;;;;;;3.13;1.63;;;;;;;;;;5033838;28;20105;-58
2022/07/04 06:27:47;;;;;;;2.10;1.60;;;;;;;;;;5028700;28;20034;-58
2022/07/04 06:30:29;;;;;;;3.08;1.50;;;;;;;;;;5031037;28;20125;-58
2022/07/04 06:33:01;;;;;;;2.60;1.33;;;;;;;;;;5033668;28;20037;-58
2022/07/04 06:38:23;;;;;;;2.10;1.40;;;;;;;;;;5032556;28;20083;-58
2022/07/04 06:41:02;;;;;;;2.25;1.30;;;;;;;;;;5030721;28;20033;-58
2022/07/04 06:43:54;;;;;;;3.50;1.63;;;;;;;;;;5021221;28;20030;-58
2022/07/04 06:46:25;;;;;;;3.53;1.95;;;;;;;;;;5032996;28;20104;-58
2022/07/04 06:49:20;;;;;;;5.20;1.88;;;;;;;;;;5025713;28;20033;-58
2022/07/04 06:51:46;;;;;;;2.70;1.70;;;;;;;;;;5027047;28;20037;-58
2022/07/04 06:54:38;;;;;;;2.80;1.98;;;;;;;;;;5030822;28;20426;-58
2022/07/04 06:57:12;;;;;;;2.33;1.20;;;;;;;;;;5031403;28;20463;-58
2022/07/04 06:59:50;;;;;;;3.25;1.75;;;;;;;;;;5030892;28;20037;-58
2022/07/04 07:02:21;;;;;;;3.03;1.60;;;;;;;;;;5031420;28;20025;-59
2022/07/04 07:04:58;;;;;;;2.05;1.27;;;;;;;;;;5031800;28;20475;-59
2022/07/04 07:07:34;;;;;;;4.70;1.65;;;;;;;;;;5030865;28;20033;-59
2022/07/04 07:10:12;;;;;;;3.35;1.83;;;;;;;;;;5029850;28;20095;-59
2022/07/04 07:12:56;;;;;;;4.10;1.77;;;;;;;;;;5033027;28;20064;-59
2022/07/04 07:15:41;;;;;;;2.10;1.10;;;;;;;;;;5039161;28;20029;-59
2022/07/04 07:18:27;;;;;;;;;;;;;;;;;;;;;
2022/07/04 07:21:06;;;;;;;;;;;;;;;;;;;;;
2022/07/04 07:23:38;;;;;;;2.33;1.83;;;;;;;;;;5013658;28;20032;-59
2022/07/04 07:26:22;;;;;;;5.50;2.03;;;;;;;;;;5030970;28;20033;-59
2022/07/04 07:29:05;;;;;;;2.65;1.75;;;;;;;;;;5032126;28;20033;-59
2022/07/04 07:31:37;;;;;;;2.35;1.45;;;;;;;;;;5031722;28;20121;-59
2022/07/04 07:34:17;;;;;;;3.08;2.10;;;;;;;;;;5027798;28;20403;-59
2022/07/04 07:36:53;;;;;;;3.80;2.00;;;;;;;;;;5030735;28;20029;-59
2022/07/04 07:39:26;;;;;;;3.38;1.90;;;;;;;;;;5031888;28;20022;-59
2022/07/04 07:42:12;;;;;;;3.40;1.95;;;;;;;;;;5032474;28;20030;-59
2022/07/04 07:44:41;;;;;;;4.35;1.88;;;;;;;;;;5024640;28;20028;-59
2022/07/04 07:47:30;;;;;;;3.22;1.85;;;;;;;;;;5027896;28;20080;-59
2022/07/04 07:50:03;;;;;;;2.63;1.80;;;;;;;;;;5008406;28;20146;-59
2022/07/04 07:52:30;;;;;;;4.80;2.35;;;;;;;;;;5009033;28;20460;-59
2022/07/04 07:58:05;;;;;;;3.95;1.95;;;;;;;;;;5027081;28;20068;-59
2022/07/04 08:01:01;;;;;;;2.20;1.55;;;;;;;;;;5012778;28;20054;-59
2022/07/04 08:06:20;;;;;;;2.97;1.90;;;;;;;;;;5026696;28;20079;-59
2022/07/04 08:08:50;;;;;;;3.05;2.03;;;;;;;;;;5031492;28;20532;-59
2022/07/04 08:11:34;;;;;;;5.25;1.80;;;;;;;;;;5029617;28;20500;-59
2022/07/04 08:14:14;;;;;;;3.20;2.33;;;;;;;;;;5030413;28;20036;-59
2022/07/04 08:16:46;;;;;;;3.53;2.28;;;;;;;;;;5031970;28;20056;-59
2022/07/04 08:19:51;;;;;;;;;;;;;;;;;;;;;
2022/07/04 08:22:23;;;;;;;4.15;2.35;;;;;;;;;;5030045;28;20022;-59
2022/07/04 08:24:58;;;;;;;2.53;1.92;;;;;;;;;;5025438;28;20554;-59
2022/07/04 08:27:27;;;;;;;4.20;2.00;;;;;;;;;;5029077;28;20033;-59
2022/07/04 08:33:17;;;;;;;4.68;2.10;;;;;;;;;;5027983;28;20036;-59
2022/07/04 08:35:58;;;;;;;2.97;1.83;;;;;;;;;;5014481;28;20091;-59
2022/07/04 08:38:24;;;;;;;;;;;;;;;;;;5028476;28;20204;-59
2022/07/04 08:41:17;;;;;;;3.28;2.13;;;;;;;;;;5023982;28;19906;-59
2022/07/04 08:43:43;;;;;;;4.13;2.67;;;;;;;;;;5028607;28;20037;-59
2022/07/04 08:46:19;;;;;;;3.10;2.22;;;;;;;;;;5031524;28;20061;-59
2022/07/04 08:48:58;;;;;;;4.43;2.58;;;;;;;;;;5030024;28;20056;-59
2022/07/04 08:51:43;;;;;;;3.08;2.17;;;;;;;;;;5028822;28;20037;-59
2022/07/04 09:00:21;;;;;;;3.58;1.70;;;;;;;;;;5011221;28;20037;-59
2022/07/04 09:02:54;;;;;;;3.38;1.90;;;;;;;;;;5012737;28;20041;-59
2022/07/04 09:05:30;;;;;;;5.82;2.75;;;;;;;;;;5029919;28;20120;-59
2022/07/04 09:07:59;;;;;;;2.28;1.70;;;;;;;;;;5031189;28;20129;-59
2022/07/04 09:10:29;;;;;;;2.78;1.88;;;;;;;;;;5029437;28;20029;-59
2022/07/04 09:13:15;;;;;;;6.63;2.45;;;;;;;;;;5030763;28;20056;-59
2022/07/04 09:15:59;;;;;;;;;;;;;;;;;;;;;
2022/07/04 09:18:52;;;;;;;6.13;1.80;;;;;;;;;;5026365;28;20034;-59
2022/07/04 09:21:26;;;;;;;3.55;2.00;;;;;;;;;;5033265;28;20040;-59
2022/07/04 09:23:52;;;;;;;3.55;2.00;;;;;;;;;;5034386;28;20037;-59
2022/07/04 09:26:27;;;;;;;3.88;2.00;;;;;;;;;;5034743;28;20040;-59
2022/07/04 09:29:21;;;;;;;5.00;1.92;;;;;;;;;;5033313;28;20116;-59
2022/07/04 09:31:57;;;;;;;2.80;1.88;;;;;;;;;;5033979;28;20029;-59
2022/07/04 09:34:31;;;;;;;2.97;1.73;;;;;;;;;;5034140;28;20032;-59
2022/07/04 09:37:12;;;;;;;5.10;1.98;;;;;;;;;;5012461;28;20120;-59
2022/07/04 09:40:01;;;;;;;;;;;;;;;;;;;;;
2022/07/04 09:42:42;;;;;;;2.72;2.00;;;;;;;;;;5012956;28;20383;-59
2022/07/04 09:45:24;;;;;;;2.15;1.70;;;;;;;;;;5031716;28;20026;-59
2022/07/04 09:47:59;;;;;;;4.07;2.10;;;;;;;;;;5034641;28;20064;-59
2022/07/04 09:50:45;;;;;;;4.97;1.98;;;;;;;;;;5050135;28;20021;-59
2022/07/04 09:53:29;;;;;;;2.95;1.70;;;;;;;;;;5032233;28;20558;-60
2022/07/04 09:56:01;;;;;;;3.78;2.70;;;;;;;;;;5025990;28;20036;-60
2022/07/04 09:58:33;;;;;;;3.50;1.85;;;;;;;;;;5031911;28;20026;-59
2022/07/04 10:01:07;;;;;;;2.60;1.55;;;;;;;;;;5031934;28;20430;-59
2022/07/04 10:03:42;;;;;;;3.53;2.10;;;;;;;;;;5033002;28;20495;-59
2022/07/04 10:06:09;;;;;;;3.25;2.03;;;;;;;;;;5026012;28;20426;-59
2022/07/04 10:08:36;;;;;;;4.30;2.40;;;;;;;;;;5033449;28;20032;-59
2022/07/04 10:11:19;;;;;;;2.47;1.70;;;;;;;;;;5032668;28;20415;-60
2022/07/04 10:13:45;;;;;;;2.83;2.17;;;;;;;;;;5032460;28;20423;-59
2022/07/04 10:16:34;;;;;;;3.92;2.13;;;;;;;;;;5032248;28;20381;-59
2022/07/04 10:19:26;;;;;;;2.22;1.40;;;;;;;;;;5025139;28;20478;-59
2022/07/04 10:21:55;;;;;;;3.40;2.22;;;;;;;;;;5031498;28;20033;-59
2022/07/04 10:24:23;;;;;;;2.90;2.15;;;;;;;;;;5031588;28;20025;-59
2022/07/04 10:26:55;;;;;;;4.05;2.17;;;;;;;;;;5031751;28;20090;-59
2022/07/04 10:29:24;;;;;;;6.72;2.28;;;;;;;;;;5031624;28;20080;-59
2022/07/04 10:32:15;;;;;;;4.78;1.92;;;;;;;;;;5032608;28;20084;-59
2022/07/04 10:34:43;;;;;;;2.60;1.80;;;;;;;;;;5032033;28;20034;-60
2022/07/04 10:37:17;;;;;;;2.78;1.92;;;;;;;;;;5032126;28;20033;-59
2022/07/04 10:39:43;;;;;;;2.72;1.77;;;;;;;;;;5029794;28;20045;-60
2022/07/04 10:42:10;;;;;;;2.55;1.70;;;;;;;;;;5033133;28;20033;-60
2022/07/04 10:44:44;;;;;;;4.35;2.05;;;;;;;;;;5030577;28;20056;-59
2022/07/04 10:47:24;;;;;;;3.33;2.08;;;;;;;;;;5031321;28;20029;-59
2022/07/04 10:50:02;;;;;;;3.00;1.80;;;;;;;;;;5031465;28;20030;-59
2022/07/04 10:52:32;;;;;;;4.00;1.70;;;;;;;;;;5029586;28;20041;-60
2022/07/04 10:58:04;;;;;;;4.28;2.28;;;;;;;;;;5029192;28;20124;-59
2022/07/04 11:00:40;;;;;;;4.38;1.88;;;;;;;;;;5030476;28;20475;-60
2022/07/04 11:03:19;;;;;;;3.15;2.00;;;;;;;;;;5031202;28;20033;-60
2022/07/04 11:05:51;;;;;;;3.50;2.20;;;;;;;;;;5032176;28;20018;-60
2022/07/04 11:08:21;;;;;;;3.08;1.77;;;;;;;;;;5032385;28;20025;-59
2022/07/04 11:11:05;;;;;;;5.75;2.58;;;;;;;;;;5030586;28;20494;-60
2022/07/04 11:13:39;;;;;;;4.30;1.80;;;;;;;;;;5030994;28;20100;-60
2022/07/04 11:16:15;;;;;;;4.97;2.00;;;;;;;;;;5046177;28;20029;-60
2022/07/04 11:18:42;;;;;;;7.68;2.17;;;;;;;;;;5032588;28;20348;-60
2022/07/04 11:21:18;;;;;;;4.07;1.75;;;;;;;;;;5030729;28;20025;-59
2022/07/04 11:23:49;;;;;;;3.17;2.00;;;;;;;;;;5031039;28;20120;-60
2022/07/04 11:26:19;;;;;;;4.32;1.83;;;;;;;;;;5032600;28;20032;-60
2022/07/04 11:28:55;;;;;;;3.97;2.40;;;;;;;;;;5032553;28;20025;-58
2022/07/04 11:31:42;;;;;;;4.13;1.85;;;;;;;;;;5029531;28;20029;-59
2022/07/04 11:34:09;;;;;;;2.90;2.13;;;;;;;;;;5042108;28;20078;-59
2022/07/04 11:36:35;;;;;;;3.45;2.42;;;;;;;;;;5032477;28;20021;-59
2022/07/04 11:39:02;;;;;;;4.75;2.13;;;;;;;;;;5032287;28;20021;-59
2022/07/04 11:47:23;;;;;;;3.15;2.17;;;;;;;;;;5020525;28;20080;-59
2022/07/04 11:50:06;;;;;;;2.28;1.83;;;;;;;;;;5029425;28;20049;-59
2022/07/04 11:52:43;;;;;;;2.83;1.80;;;;;;;;;;5028763;28;20048;-59
2022/07/04 11:55:19;;;;;;;5.00;2.38;;;;;;;;;;5031590;28;20026;-59
2022/07/04 11:57:57;;;;;;;5.63;2.05;;;;;;;;;;5031615;28;20029;-59
2022/07/04 12:00:31;;;;;;;2.67;1.63;;;;;;;;;;5030923;28;20025;-59
2022/07/04 12:03:10;;;;;;;3.28;2.00;;;;;;;;;;5026909;28;20587;-59
2022/07/04 12:05:46;;;;;;;2.53;2.00;;;;;;;;;;5031902;28;20383;-59
2022/07/04 12:08:13;;;;;;;4.07;2.15;;;;;;;;;;5030408;28;20426;-59
2022/07/04 12:10:53;;;;;;;4.25;1.90;;;;;;;;;;5030703;28;20033;-59
2022/07/04 12:13:22;;;;;;;2.25;1.60;;;;;;;;;;5027209;28;20037;-59
2022/07/04 12:15:52;;;;;;;2.97;2.17;;;;;;;;;;5028634;28;20104;-59
2022/07/04 12:18:25;;;;;;;2.85;2.10;;;;;;;;;;5047397;28;20083;-59
2022/07/04 12:21:17;;;;;;;3.00;2.28;;;;;;;;;;5030873;28;20112;-59
2022/07/04 12:23:51;;;;;;;3.20;1.92;;;;;;;;;;5021053;28;20029;-59
2022/07/04 12:26:18;;;;;;;2.75;1.65;;;;;;;;;;5030140;28;20038;-59
2022/07/04 12:28:49;;;;;;;2.90;2.40;;;;;;;;;;5031602;28;20028;-59
2022/07/04 12:31:34;;;;;;;4.68;2.15;;;;;;;;;;5030156;28;20030;-59
2022/07/04 12:34:00;;;;;;;3.50;2.28;;;;;;;;;;5023962;28;20129;-59
2022/07/04 12:36:29;;;;;;;3.22;2.08;;;;;;;;;;5031199;28;20027;-59
2022/07/04 12:38:58;;;;;;;2.15;1.60;;;;;;;;;;5031038;28;20494;-59
2022/07/04 12:41:36;;;;;;;5.68;2.38;;;;;;;;;;5031999;28;20125;-59
2022/07/04 12:44:05;;;;;;;3.10;2.08;;;;;;;;;;5011751;28;20026;-59
2022/07/04 12:46:43;;;;;;;3.75;2.17;;;;;;;;;;5010275;28;20029;-59
2022/07/04 12:49:17;;;;;;;5.97;2.05;;;;;;;;;;5011431;28;20084;-59
2022/07/04 12:51:47;;;;;;;4.30;2.08;;;;;;;;;;5029620;28;20099;-59
2022/07/04 12:54:18;;;;;;;2.03;1.42;;;;;;;;;;5032523;28;20026;-59
2022/07/04 12:56:54;;;;;;;3.00;2.00;;;;;;;;;;5035342;28;20069;-59
2022/07/04 12:59:23;;;;;;;4.53;1.73;;;;;;;;;;5034044;28;20030;-59
2022/07/04 13:01:52;;;;;;;3.65;1.80;;;;;;;;;;5033091;28;20059;-59
2022/07/04 13:04:24;;;;;;;2.95;1.63;;;;;;;;;;5035348;28;20017;-59
2022/07/04 13:06:59;;;;;;;3.70;1.88;;;;;;;;;;5066380;28;20080;-59
2022/07/04 13:09:30;;;;;;;3.45;1.83;;;;;;;;;;5032119;28;20043;-59
2022/07/04 13:14:47;;;;;;;2.80;1.70;;;;;;;;;;5034335;28;20121;-59
2022/07/04 13:17:19;;;;;;;3.17;1.83;;;;;;;;;;5035596;28;20032;-59
2022/07/04 13:19:45;;;;;;;2.10;1.67;;;;;;;;;;5033186;28;20262;-59
2022/07/04 13:22:14;;;;;;;5.30;1.90;;;;;;;;;;5032363;28;20026;-59
2022/07/04 13:24:43;;;;;;;2.03;1.60;;;;;;;;;;5033138;28;20021;-59
2022/07/04 13:27:21;;;;;;;6.68;2.22;;;;;;;;;;5033171;28;20387;-59
2022/07/04 13:29:55;;;;;;;3.20;1.80;;;;;;;;;;5033801;28;20067;-59
2022/07/04 13:32:32;;;;;;;4.53;2.03;;;;;;;;;;5030988;28;20077;-59
2022/07/04 13:35:04;;;;;;;2.22;1.60;;;;;;;;;;5033097;28;20033;-59
2022/07/04 13:37:33;;;;;;;3.00;1.80;;;;;;;;;;5033207;28;20045;-59
2022/07/04 13:40:10;;;;;;;3.15;2.10;;;;;;;;;;5033507;28;20032;-59
2022/07/04 13:43:00;;;;;;;2.65;1.80;;;;;;;;;;5034652;28;20022;-59
2022/07/04 13:45:38;;;;;;;3.40;1.45;;;;;;;;;;5033249;28;20032;-59
2022/07/04 13:48:25;;;;;;;3.22;1.60;;;;;;;;;;5027971;28;20025;-59
2022/07/04 13:50:54;;;;;;;3.42;1.33;;;;;;;;;;5032113;28;20049;-59
2022/07/04 13:53:33;;;;;;;2.38;1.63;;;;;;;;;;5032212;28;20036;-59
2022/07/04 13:56:17;;;;;;;3.08;1.77;;;;;;;;;;5028105;28;20124;-59
2022/07/04 13:58:49;;;;;;;2.92;1.50;;;;;;;;;;5032672;28;20029;-59
2022/07/04 14:01:19;;;;;;;2.72;1.90;;;;;;;;;;5033081;28;20056;-59
2022/07/04 14:03:49;;;;;;;2.45;1.27;;;;;;;;;;5031609;28;20029;-59
2022/07/04 14:06:24;;;;;;;3.78;1.98;;;;;;;;;;5031363;28;20057;-59
2022/07/04 14:09:11;;;;;;;3.35;1.85;;;;;;;;;;5031755;28;20029;-60
2022/07/04 14:11:40;;;;;;;2.90;1.67;;;;;;;;;;5031341;28;20442;-59
2022/07/04 14:14:11;;;;;;;5.03;1.58;;;;;;;;;;5029818;28;20072;-59
2022/07/04 14:16:39;;;;;;;11.00;1.90;;;;;;;;;;5035556;28;20092;-59
2022/07/04 14:19:13;;;;;;;1.92;1.40;;;;;;;;;;5033170;28;20370;-59
2022/07/04 14:21:42;;;;;;;4.35;1.67;;;;;;;;;;5032937;28;20369;-59
2022/07/04 14:24:16;;;;;;;5.53;1.77;;;;;;;;;;5030835;28;20036;-59
2022/07/04 14:26:45;;;;;;;2.75;1.38;;;;;;;;;;5031233;28;20139;-59
2022/07/04 14:29:14;;;;;;;3.67;1.83;;;;;;;;;;5032158;28;20048;-59
2022/07/04 14:31:43;;;;;;;3.15;1.25;;;;;;;;;;5030894;28;20069;-59
2022/07/04 14:34:14;;;;;;;4.80;1.60;;;;;;;;;;5031775;28;20048;-59
2022/07/04 14:36:46;;;;;;;2.55;1.70;;;;;;;;;;5029903;28;20120;-59
2022/07/04 14:39:21;;;;;;;3.33;1.90;;;;;;;;;;5031339;28;20052;-59
2022/07/04 14:41:54;;;;;;;5.68;2.85;;;;;;;;;;5030989;28;20478;-59
2022/07/04 14:44:22;;;;;;;4.22;1.55;;;;;;;;;;5028938;28;20036;-59
2022/07/04 14:46:56;;;;;;;2.95;1.67;;;;;;;;;;5022863;28;20013;-59
2022/07/04 14:49:34;;;;;;;3.05;1.77;;;;;;;;;;5025208;28;20030;-59
2022/07/04 14:52:00;;;;;;;2.30;1.70;;;;;;;;;;5046579;28;20428;-59
2022/07/04 14:54:29;;;;;;;3.55;2.20;;;;;;;;;;5025452;28;20356;-59
2022/07/04 14:56:59;;;;;;;2.47;1.65;;;;;;;;;;5018291;28;20029;-59
2022/07/04 14:59:27;;;;;;;2.40;1.40;;;;;;;;;;5025475;28;20651;-59
2022/07/04 15:02:01;;;;;;;4.18;2.13;;;;;;;;;;5039337;28;20025;-59
2022/07/04 15:04:35;;;;;;;2.90;1.70;;;;;;;;;;5024779;28;20040;-59
2022/07/04 15:07:04;;;;;;;3.70;1.92;;;;;;;;;;5042102;28;20079;-59
2022/07/04 15:09:39;;;;;;;4.38;1.92;;;;;;;;;;5030958;28;20025;-59
2022/07/04 15:12:08;;;;;;;3.08;1.63;;;;;;;;;;5022401;28;20030;-60
2022/07/04 15:14:37;;;;;;;2.65;1.90;;;;;;;;;;5026734;28;20021;-60
2022/07/04 15:17:03;;;;;;;3.55;1.73;;;;;;;;;;5031167;28;20070;-60
2022/07/04 15:24:10;;;;;;;3.80;2.10;;;;;;;;;;5033374;28;20101;-60
2022/07/04 15:25:09;;;;;;;3.65;1.70;;;;;;;;;;5023230;28;20063;-60
2022/07/04 15:27:38;;;;;;;3.40;1.70;;;;;;;;;;5026235;28;20467;-61
2022/07/04 15:30:08;;;;;;;2.50;1.83;;;;;;;;;;5032162;28;20025;-60
2022/07/04 15:32:37;;;;;;;2.80;2.00;;;;;;;;;;5026366;28;20113;-60
2022/07/04 15:35:06;;;;;;;2.95;1.92;;;;;;;;;;5025444;28;20034;-60
2022/07/04 15:37:32;;;;;;;3.42;1.98;;;;;;;;;;5023315;28;20479;-60
2022/07/04 15:40:05;;;;;;;3.47;1.80;;;;;;;;;;5027889;28;20029;-60
2022/07/04 15:42:49;;;;;;;2.08;1.60;;;;;;;;;;5023913;28;20386;-60
2022/07/04 15:45:18;;;;;;;2.65;1.80;;;;;;;;;;5028345;28;20040;-60
2022/07/04 15:47:46;;;;;;;2.10;1.38;;;;;;;;;;5020566;28;20030;-60
2022/07/04 15:50:16;;;;;;;3.15;1.67;;;;;;;;;;5020180;28;20026;-60
2022/07/04 15:52:42;;;;;;;2.77;1.80;;;;;;;;;;5028915;28;20382;-60
2022/07/04 15:55:08;;;;;;;3.00;1.50;;;;;;;;;;5029982;28;20029;-60
2022/07/04 15:57:38;;;;;;;2.22;1.60;;;;;;;;;;5029012;28;20072;-60
2022/07/04 16:00:07;;;;;;;3.83;1.70;;;;;;;;;;5017735;28;20553;-60
2022/07/04 16:02:34;;;;;;;6.63;2.00;;;;;;;;;;5041727;28;20053;-60
2022/07/04 16:05:06;;;;;;;2.53;1.45;;;;;;;;;;5024214;28;20029;-60
2022/07/04 16:07:42;;;;;;;;;;;;;;;;;;;;;
2022/07/04 16:10:11;;;;;;;2.80;2.17;;;;;;;;;;5035060;28;20047;-60
2022/07/04 16:12:41;;;;;;;2.55;1.98;;;;;;;;;;5018865;28;20391;-60
2022/07/04 16:15:07;;;;;;;3.75;2.92;;;;;;;;;;5042942;28;20018;-60
2022/07/04 16:17:40;;;;;;;2.58;2.10;;;;;;;;;;5029356;28;20025;-60
2022/07/04 16:20:18;;;;;;;3.75;2.17;;;;;;;;;;5035985;28;20021;-59
2022/07/04 16:22:52;;;;;;;2.15;1.70;;;;;;;;;;5025834;28;20461;-60
2022/07/04 16:25:24;;;;;;;4.43;1.85;;;;;;;;;;5041591;28;20516;-60
2022/07/04 16:27:56;;;;;;;4.68;1.90;;;;;;;;;;5017090;28;20037;-60
2022/07/04 16:30:22;;;;;;;2.55;1.90;;;;;;;;;;5044848;28;20437;-60
2022/07/04 16:32:51;;;;;;;5.45;2.35;;;;;;;;;;5033800;28;20429;-60
2022/07/04 16:35:22;;;;;;;2.60;1.30;;;;;;;;;;5024830;28;20053;-60
2022/07/04 16:37:54;;;;;;;2.55;1.58;;;;;;;;;;5034646;28;20552;-60
2022/07/04 16:40:26;;;;;;;4.30;1.70;;;;;;;;;;5029250;28;20388;-60
2022/07/04 16:43:04;;;;;;;3.72;1.50;;;;;;;;;;5028824;28;20053;-58
2022/07/04 16:45:30;;;;;;;3.13;1.35;;;;;;;;;;5024708;28;20026;-59
2022/07/04 16:47:59;;;;;;;4.78;1.52;;;;;;;;;;5033891;28;20099;-59
2022/07/04 16:50:28;;;;;;;2.60;1.75;;;;;;;;;;5029097;28;20018;-59